Ranchitos, New Mexico
Current Conditions -  °F | °C
As of 2:48 PM on Sunday 21 Dec 2014 (Local Time) from KAEG Reporting Station
Broken Clouds Broken Clouds  
Wind Chill: 46°   Ceiling: 12000
Heat Index: 48°   Visibility: 10mi
Dew Point: 28°   Wind: 6mph
Humidity: 46%   Direction: 330°NNW
Pressure: 29.93"   Gusts: NA
Location:  35.4078°N, 106.82°W
Report Text: KAEG 212148Z 33005KT 10SM BKN120 09/M02 A2993
Loading
Personal Weather Stations






























Interactive Weather Map New forecast layout! Learn more

10-Day Weather Forecast

Advertisements
Track Severe Weather on mobile